Weather observations for the past three days for
Temple, Draughon-Miller Central Texas Regional Airport
Imperial (Metric)
Date Time (cdt) Wind (mph) Vis. (mi.) Weather Sky Cond. Temperature (ºF) Relative Humidity Wind Chill (°F) Heat Index (°F) Pressure Precipitation (in)
Air Dwpt 6 hour altimeter (in) sea level (mb) 1 hr 3 hr 6 hr
Max. Min.
10 11:51 S 14 0.00 Partly Cloudy SCT023 82 70 67% 86 29.96 1013.4
10 10:51 SE 12 0.00 Overcast OVC015 78.1 70 76% 80 29.97 1013.8
10 09:51 SE 13 0.00 Overcast OVC011 75.9 69.1 79% 77 29.97 1013.8
10 08:51 SE 12 0.00 Partly Cloudy SCT007 72 68 87% 29.97 1013.7
10 07:51 E 8 0.00 Fair CLR 69.1 66.9 93% 29.94 1012.9
10 06:51 E 6 0.00 Fair CLR 66.9 64.9 71.1 66.9 93% 29.91 1011.5
10 05:51 S 9 0.00 Fair CLR 68 64.9 90% 29.86 1010.0
10 04:51 S 12 0.00 Fair CLR 69.1 66 90% 29.85 1009.9
10 03:51 S 10 0.00 Fair CLR 69.1 64.9 87% 29.84 1009.5
10 02:51 S 12 0.00 Fair CLR 70 64 82% 29.84 1009.4
10 01:51 S 10 0.00 Fair CLR 70 64 82% 29.86 1010.0
10 00:51 S 8 0.00 Fair CLR 72 64.9 88 72 79% 29.85 1009.7
09 23:51 S 8 0.00 Fair CLR 73 66 79% 29.85 1009.7
09 22:51 S 8 0.00 Fair CLR 75 69.1 82% 75 29.85 1009.7
09 21:51 S 5 0.00 Fair CLR 77 66.9 71% 79 29.83 1009.0
09 20:51 SE 7 0.00 Fair CLR 78.1 66.9 69% 80 29.8 1008.2
09 19:51 SE 8 0.00 Fair CLR 82 68 63% 85 29.78 1007.5
09 18:51 SE 3 0.00 Fair CLR 88 63 91.9 84 43% 89 29.78 1007.2
09 17:51 NE 5 0.00 Fair CLR 89.1 64 43% 90 29.77 1006.9
09 16:51 Calm 0.00 Fair CLR 90 64 42% 91 29.78 1007.2
09 15:51 Vrbl 3 0.00 Fair CLR 91 64.9 42% 93 29.79 1007.8
09 14:51 SW 7 0.00 Fair CLR 89.1 64.9 45% 91 29.82 1008.6
09 13:51 NW 8 0.00 Fair CLR 88 66 48% 90 29.84 1009.4
09 12:51 Calm 0.00 A Few Clouds FEW034 88 68 88 68 52% 92 29.86 1010.1
09 11:51 Vrbl 3 0.00 Fair CLR 81 68 65% 84 29.88 1010.8
09 10:51 NW 7 0.00 Fair CLR 81 69.1 67% 84 29.88 1010.7
09 09:51 N 7 0.00 Overcast OVC011 73.9 69.1 85% 29.87 1010.8
09 08:51 NW 5 0.00 Mostly Cloudy BKN005 72 72 100% 29.85 1010.0
09 07:51 S 14 0.00 Overcast OVC001 70 70 100% 29.8 1008.3
09 06:51 S 8 0.00 Mostly Cloudy BKN003 68 68 71.1 68 100% 29.82 1009.0 0.01
09 05:51 NW 10 0.00 Overcast OVC001 69.1 69.1 100% 29.88 1010.8 0.01
09 04:51 Calm 0.00 Overcast OVC002 71.1 70 96% 29.87 1010.6
09 03:51 Calm 0.00 Overcast OVC004 71.1 71.1 100% 29.87 1010.8
09 02:51 S 7 0.00 Overcast FEW009 SCT047 OVC055 71.1 70 96% 29.86 1010.5
09 01:51 S 5 0.00 Overcast OVC020 71.1 70 96% 29.87 1010.8
09 00:51 Calm 0.00 Overcast OVC018 68 68 73.9 66 100% 29.85 1009.8
08 23:51 N 5 0.00 A Few Clouds FEW016 66 64.9 96% 29.85 1009.9
08 22:51 Calm 0.00 Fair CLR 68 66.9 96% 29.84 1009.4
08 21:51 Calm 0.00 Fair CLR 70 68 93% 29.81 1008.5
08 20:51 SE 8 0.00 Overcast OVC070 72 68 87% 29.8 1008.1
08 19:51 SE 7 0.00 Overcast OVC070 73 69.1 87% 29.8 1008.1
08 18:51 SE 7 0.00 Overcast FEW019 OVC065 73.9 68 73.9 68 82% 29.8 1008.4
08 17:51 SE 8 0.00 Mostly Cloudy SCT015 BKN065 73.9 66.9 79% 29.81 1008.6
08 16:51 SE 7 0.00 Overcast BKN013 OVC019 73 66.9 81% 29.82 1009.0
08 15:51 SE 8 0.00 Overcast OVC009 71.1 66 84% 29.85 1010.0
08 14:51 SE 5 0.00 Overcast OVC009 69.1 64.9 87% 29.87 1010.8
08 13:51 SE 6 0.00 Overcast OVC009 69.1 64 84% 29.89 1011.4
08 12:51 E 8 0.00 Overcast OVC011 68 64 68 59 87% 29.91 1012.0
08 11:51 SE 3 0.00 Overcast OVC018 66.9 62.1 84% 29.93 1013.0
08 10:51 SE 6 0.00 Overcast OVC018 66.9 62.1 84% 29.94 1013.3
08 09:51 E 3 0.00 Overcast OVC018 64.9 61 87% 29.94 1013.1
08 08:51 SE 3 0.00 Overcast OVC018 62.1 59 90% 29.96 1013.8
08 07:51 Calm 0.00 Overcast OVC022 60.1 57.9 93% 29.96 1013.8
08 06:51 SE 6 0.00 Mostly Cloudy FEW023 BKN050 BKN085 59 57 59 55 93% 29.94 1013.3
08 05:51 Calm 0.00 Overcast OVC026 59 57.9 96% 29.97 1014.1
08 04:51 N 5 0.00 Overcast OVC028 59 57 93% 29.99 1014.8
08 03:51 N 3 0.00 Overcast OVC028 57.9 55.9 93% 29.97 1014.2
08 02:51 N 5 0.00 Mostly Cloudy BKN024 57 55.9 96% 29.96 1014.1
08 01:51 NW 3 0.00 Fair CLR 55.9 54 93% 29.99 1015.1
08 00:51 NW 5 0.00 Fair CLR 55.9 55 66 55.9 97% 30 1015.3
07 23:51 NW 3 0.00 Fair CLR 57.9 55 90% 30.01 1015.7
07 22:51 NW 3 0.00 Fair CLR 57.9 55 90% 30.01 1015.7
07 21:51 NE 5 0.00 Fair CLR 59 55 87% 29.97 1014.5
07 20:51 N 5 0.00 Fair CLR 61 55 81% 29.97 1014.2
07 19:51 N 5 0.00 Fair CLR 63 55.9 78% 30 1015.3
07 18:51 E 5 0.00 Fair CLR 66 55 66 63 68% 29.99 1014.9
07 17:51 N 3 0.00 Fair CLR 66 54 65% 30.01 1015.6
07 16:51 NE 7 0.00 A Few Clouds FEW120 66 52 61% 30.01 1015.5
07 15:51 E 3 0.00 Fair CLR 64.9 52 63% 30.04 1016.6
07 14:51 E 3 0.00 Fair CLR 64.9 52 63% 30.06 1017.3
07 13:51 NE 7 0.00 Fair CLR 63 51.1 65% 30.07 1017.7
07 12:51 N 10 0.00 Fair CLR 63 51.1 64.9 55.9 65% 30.05 1017.2
Date Time (cdt) Wind (mph) Vis. (mi.) Weather Sky Cond. Air Dwpt Max. Min. Relative Humidity Wind Chill (°F) Heat Index (°F) altimeter (in) sea level (mb) 1 hr 3 hr 6 hr
6 hour
Temperature (ºF) Pressure Precipitation (in)